首页
METAR-TAF:

METAR-TAF

机场 :

Fort St. John, 不列颠哥伦比亚, 加拿大

纬度: 56-14N, 经度: 120-44W, 海拔: 695米

当前天气观测

该预报发布于1小时和17分钟前的16:00 UTC
风速5节,风向东转东南,在南转南东之间变化
温度 11°C
湿度 71%
气压 1013 hPa
能見度: 96.5公里
少量云层高于5500英尺

METAR: CYXJ 051600Z 12005KT 080V150 60SM FEW055 11/06 A2991 RMK CU1 SLP147 DENSITY ALT 2400FT

时间: 10:17 (17:17 UTC)

预报

该预报发布于2小时和39分钟前的14:38 UTC
预报有效从05日的 15点(UTC)到 06日的 03点(UTC)
风速8节,风向东南
能見度: 10公里
天空无云
从 05日的 1800点(UTC)
风速10节,风向东转东南
能見度: 10公里
散云层高于6000英尺
短暂存在
从 05日的 18点(UTC)到 05日的 20点(UTC)
多云层高于6000英尺
从 05日的 2000点(UTC)
风速10节,风向东转东南
能見度: 10公里
散云层高于8000英尺
短暂存在
从 05日的 20点(UTC)到 06日的 03点(UTC)
能見度: 10公里
多云层高于8000英尺, 积雨云.
小阵雨, 附近有雷暴

TAF: CYXJ 051438Z 0515/0603 13008KT P6SM SKC FM051800 12010KT P6SM SCT060 TEMPO 0518/0520 BKN060 FM052000 12010KT P6SM SCT080 TEMPO 0520/0603 P6SM -SHRA VCTS BKN080CB RMK NXT FCST BY 051900Z

超过4000个机场的气象观测和天气预报(METAR&TAF报告)。

可查询的气象台以黄色和红色小点在地图上表示。

将鼠标移到小点上方,可查看气象台名称。

然后点击查看天气观测和预报。

如需切换地图:点击带黑十字的绿色按钮放大地图;点击带横线的绿色按钮缩小地图;或者点击绿色箭头查看邻近地区的地图。


METAR-TAF: